createdAt,value
2023-05-14T00:15:48.038Z,111.45
2023-05-14T03:51:45.636Z,111.45
2023-05-14T03:52:45.630Z,109.52
2023-05-14T03:53:45.592Z,107.91
2023-05-14T03:54:45.618Z,110.16
2023-05-14T03:55:45.579Z,106.62
2023-05-14T03:56:45.664Z,110.48
2023-05-14T03:57:45.556Z,107.26
2023-05-14T03:58:45.589Z,110.81
2023-05-14T03:59:45.699Z,111.77
2023-05-14T04:00:45.538Z,107.26
2023-05-14T04:01:45.531Z,111.13
2023-05-14T04:02:45.567Z,105.65
2023-05-14T04:03:45.715Z,107.91
2023-05-14T04:04:45.509Z,110.81
2023-05-14T04:05:45.502Z,109.52
2023-05-14T04:06:45.515Z,111.13
2023-05-14T04:07:45.460Z,109.84
2023-05-14T04:08:45.478Z,106.29
2023-05-14T04:09:45.506Z,110.16
2023-05-14T04:10:45.508Z,109.52
2023-05-14T04:11:45.401Z,106.62
2023-05-14T04:12:45.476Z,109.84
2023-05-14T04:13:45.417Z,108.55
2023-05-14T04:14:45.400Z,110.81
2023-05-14T04:15:45.378Z,112.74
2023-05-14T04:16:45.481Z,113.38
2023-05-14T04:17:45.370Z,106.94
2023-05-14T04:18:45.394Z,109.19
2023-05-14T04:19:45.344Z,110.81
2023-05-14T04:20:45.394Z,109.84
2023-05-14T04:21:45.305Z,110.48
2023-05-14T04:22:45.373Z,110.81
2023-05-14T04:23:45.375Z,110.81
2023-05-14T04:24:45.300Z,107.58
2023-05-14T04:25:45.315Z,106.94
2023-05-14T04:26:45.272Z,113.06
2023-05-14T04:27:45.261Z,110.16
2023-05-14T04:28:45.263Z,110.81
2023-05-14T04:29:45.264Z,111.45
2023-05-14T04:30:45.255Z,110.48
2023-05-14T04:31:45.291Z,105.65
2023-05-14T04:32:45.272Z,114.67
2023-05-14T04:33:45.208Z,109.84
2023-05-14T04:34:45.205Z,107.91
2023-05-14T04:35:45.149Z,114.03
2023-05-14T04:36:45.146Z,105.97
2023-05-14T04:37:45.237Z,106.62
2023-05-14T04:38:45.135Z,110.48
2023-05-14T04:39:45.125Z,109.52
2023-05-14T04:40:45.146Z,109.52
2023-05-14T04:41:45.121Z,108.87
2023-05-14T04:42:45.079Z,109.52
2023-05-14T04:43:45.068Z,107.91
2023-05-14T04:44:45.070Z,106.29
2023-05-14T04:45:45.157Z,107.26
2023-05-14T04:46:45.069Z,109.84
2023-05-14T04:47:45.116Z,107.58
2023-05-14T04:48:45.244Z,110.81
2023-05-14T04:49:45.066Z,106.94
2023-05-14T04:50:45.201Z,114.03
2023-05-14T04:51:45.110Z,115.32
2023-05-14T04:52:45.034Z,107.26
2023-05-14T04:53:45.018Z,106.62
2023-05-14T04:54:45.169Z,105.97
2023-05-14T04:55:44.969Z,109.84
2023-05-14T04:56:44.973Z,108.55
2023-05-14T04:57:44.929Z,107.58
2023-05-14T04:58:44.944Z,108.23
2023-05-14T04:59:44.912Z,108.23
2023-05-14T05:00:44.920Z,110.81
2023-05-14T05:01:45.256Z,113.71
2023-05-14T05:02:44.907Z,110.16
2023-05-14T05:03:45.014Z,106.29
2023-05-14T05:04:44.854Z,107.91
2023-05-14T05:05:45.046Z,113.38
2023-05-14T05:06:44.844Z,107.91
2023-05-14T05:07:44.901Z,112.09
2023-05-14T05:08:44.838Z,106.94
2023-05-14T05:09:44.878Z,107.58
2023-05-14T05:10:44.807Z,112.42
2023-05-14T05:11:44.777Z,108.87
2023-05-14T05:12:44.776Z,113.06
2023-05-14T05:13:44.770Z,111.13
2023-05-14T05:14:44.965Z,109.84
2023-05-14T05:15:44.767Z,111.77
2023-05-14T05:16:44.773Z,107.58
2023-05-14T05:17:44.766Z,107.91
2023-05-14T05:18:44.776Z,110.81
2023-05-14T05:19:44.822Z,109.52
2023-05-14T05:20:44.721Z,108.87
2023-05-14T05:21:44.741Z,108.87
2023-05-14T05:22:44.758Z,109.19
2023-05-14T05:23:44.698Z,110.16
2023-05-14T05:24:44.756Z,110.48
2023-05-14T05:25:44.633Z,113.38
2023-05-14T05:26:44.671Z,112.74
2023-05-14T05:27:44.638Z,112.74
2023-05-14T05:28:44.594Z,112.74
2023-05-14T05:29:44.666Z,111.13
2023-05-14T05:30:44.596Z,110.81
2023-05-14T05:31:44.722Z,107.58
2023-05-14T05:32:44.593Z,112.09
2023-05-14T05:33:44.774Z,108.23
2023-05-14T05:34:44.539Z,108.23
2023-05-14T05:35:44.612Z,108.55
2023-05-14T05:36:44.508Z,109.19
2023-05-14T05:37:44.508Z,108.55
2023-05-14T05:38:44.726Z,108.23
2023-05-14T05:39:44.481Z,112.09
2023-05-14T05:40:44.494Z,112.42
2023-05-14T05:41:44.462Z,107.26
2023-05-14T05:42:44.454Z,106.62
2023-05-14T05:43:44.463Z,108.87
2023-05-14T05:44:44.435Z,108.87
2023-05-14T05:45:44.427Z,111.77
2023-05-14T05:46:44.467Z,108.55
2023-05-14T05:47:44.434Z,108.55
2023-05-14T05:48:44.375Z,107.58
2023-05-14T05:49:44.397Z,111.45
2023-05-14T05:50:44.388Z,110.48
2023-05-14T05:51:44.372Z,108.23
2023-05-14T05:52:44.444Z,113.71
2023-05-14T05:53:44.365Z,110.48
2023-05-14T05:54:44.298Z,108.87
2023-05-14T05:55:44.299Z,113.38
2023-05-14T05:56:44.272Z,109.84
2023-05-14T05:57:44.293Z,111.45
2023-05-14T05:58:44.289Z,108.87
2023-05-14T05:59:44.256Z,105.33
2023-05-14T06:00:44.230Z,111.45
2023-05-14T06:01:44.307Z,109.84
2023-05-14T06:02:44.506Z,108.87
2023-05-14T06:03:45.800Z,109.19
2023-05-14T06:04:44.209Z,108.55
2023-05-14T06:05:44.316Z,108.87
2023-05-14T06:06:44.248Z,107.91
2023-05-14T06:07:44.230Z,109.19
2023-05-14T06:08:44.169Z,107.26
2023-05-14T06:09:44.145Z,109.19
2023-05-14T06:10:45.246Z,109.84
2023-05-14T06:11:44.149Z,113.38
2023-05-14T06:12:44.136Z,109.19
2023-05-14T06:13:44.123Z,109.52
2023-05-14T06:14:44.122Z,111.77
2023-05-14T06:15:44.115Z,109.52
2023-05-14T06:16:44.165Z,111.13
2023-05-14T06:17:44.140Z,107.58
2023-05-14T06:18:44.131Z,112.42
2023-05-14T06:19:44.268Z,109.84
2023-05-14T06:20:44.045Z,112.09
2023-05-14T06:21:44.032Z,108.23
2023-05-14T06:22:44.006Z,108.87
2023-05-14T06:23:44.116Z,108.87
2023-05-14T06:24:44.004Z,111.13
2023-05-14T06:25:44.020Z,112.74
2023-05-14T06:26:43.974Z,111.45
2023-05-14T06:27:43.974Z,106.94
2023-05-14T06:28:43.960Z,106.94
2023-05-14T06:29:44.163Z,112.74
2023-05-14T06:30:43.949Z,113.06
2023-05-14T06:31:44.005Z,111.13
2023-05-14T06:32:43.918Z,110.16
2023-05-14T06:33:43.911Z,114.35
2023-05-14T06:34:43.890Z,110.81
2023-05-14T06:35:43.912Z,108.55
2023-05-14T06:36:43.857Z,109.84
2023-05-14T06:37:43.861Z,107.91
2023-05-14T06:38:43.841Z,110.48
2023-05-14T06:39:43.862Z,111.45
2023-05-14T06:40:43.830Z,113.06
2023-05-14T06:41:43.823Z,108.87
2023-05-14T06:42:43.789Z,111.45
2023-05-14T06:43:43.820Z,111.77
2023-05-14T06:44:43.776Z,111.45
2023-05-14T06:45:43.787Z,111.77
2023-05-14T06:46:43.739Z,108.87
2023-05-14T06:47:43.801Z,111.13
2023-05-14T06:48:43.751Z,109.52
2023-05-14T06:49:43.762Z,113.06
2023-05-14T06:50:43.715Z,107.91
2023-05-14T06:51:43.707Z,108.55
2023-05-14T06:52:43.685Z,110.48
2023-05-14T06:53:43.693Z,107.91
2023-05-14T06:54:43.650Z,109.84
2023-05-14T06:55:43.716Z,110.81
2023-05-14T06:56:43.652Z,108.87
2023-05-14T06:57:43.655Z,114.67
2023-05-14T06:58:43.639Z,109.84
2023-05-14T06:59:43.626Z,109.19
2023-05-14T07:00:43.624Z,112.42
2023-05-14T07:01:43.621Z,112.74
2023-05-14T07:02:43.584Z,108.23
2023-05-14T07:03:43.596Z,109.84
2023-05-14T07:04:43.653Z,110.48
2023-05-14T07:05:43.556Z,110.81
2023-05-14T07:06:43.525Z,109.19
2023-05-14T07:07:43.543Z,108.55
2023-05-14T07:08:43.507Z,110.81
2023-05-14T07:09:43.502Z,109.19
2023-05-14T07:10:43.471Z,109.84
2023-05-14T07:11:43.511Z,109.19
2023-05-14T07:12:43.490Z,111.77
2023-05-14T07:13:43.493Z,110.48
2023-05-14T07:14:43.445Z,110.81
2023-05-14T07:15:43.469Z,110.48
2023-05-14T07:16:43.448Z,112.09
2023-05-14T07:17:43.421Z,111.77
2023-05-14T07:18:43.495Z,112.42
2023-05-14T07:19:43.389Z,112.09
2023-05-14T07:20:43.379Z,112.09
2023-05-14T07:21:43.364Z,110.48
2023-05-14T07:22:43.383Z,113.06
2023-05-14T07:23:43.348Z,114.03
2023-05-14T07:24:43.353Z,108.23
2023-05-14T07:25:43.328Z,111.77
2023-05-14T07:26:43.317Z,110.81
2023-05-14T07:27:43.352Z,110.81
2023-05-14T07:28:43.312Z,112.09
2023-05-14T07:29:43.319Z,109.19
2023-05-14T07:30:43.296Z,112.42
2023-05-14T07:31:43.280Z,110.81
2023-05-14T07:32:43.275Z,111.77
2023-05-14T07:33:43.257Z,109.52
2023-05-14T07:34:43.239Z,111.13
2023-05-14T07:35:43.227Z,109.52
2023-05-14T07:36:43.198Z,109.19
2023-05-14T07:37:43.230Z,111.13
2023-05-14T07:38:43.180Z,111.45
2023-05-14T07:39:43.234Z,111.45
2023-05-14T07:40:43.161Z,109.52
2023-05-14T07:41:43.196Z,113.38
2023-05-14T07:42:43.150Z,112.09
2023-05-14T07:43:43.234Z,110.81
2023-05-14T07:44:43.130Z,111.13
2023-05-14T07:45:43.127Z,111.13
2023-05-14T07:46:43.106Z,112.74
2023-05-14T07:47:43.196Z,110.81
2023-05-14T07:48:43.115Z,112.09
2023-05-14T07:49:43.096Z,112.42
2023-05-14T07:50:43.092Z,111.77
2023-05-14T07:51:43.046Z,112.42
2023-05-14T07:52:43.026Z,110.81
2023-05-14T07:53:43.025Z,110.81
2023-05-14T07:54:43.036Z,112.42
2023-05-14T07:55:43.019Z,110.48
2023-05-14T07:56:43.008Z,111.45
2023-05-14T07:57:42.972Z,112.74
2023-05-14T07:58:42.995Z,112.09
2023-05-14T07:59:43.013Z,111.13
2023-05-14T08:00:42.983Z,111.13
2023-05-14T08:01:43.044Z,109.52
2023-05-14T08:02:43.134Z,112.42
2023-05-14T08:03:43.045Z,111.13
2023-05-14T08:04:42.893Z,111.77
2023-05-14T08:05:42.953Z,110.81
2023-05-14T08:06:42.880Z,111.13
2023-05-14T08:07:42.877Z,111.77
2023-05-14T08:08:42.858Z,112.42
2023-05-14T08:09:42.844Z,109.84
2023-05-14T08:10:42.874Z,113.06
2023-05-14T08:11:42.851Z,111.45
2023-05-14T08:12:42.880Z,111.13
2023-05-14T08:13:42.837Z,114.03
2023-05-14T08:14:42.793Z,111.77
2023-05-14T08:15:42.859Z,110.81
2023-05-14T08:16:42.827Z,114.35
2023-05-14T08:17:42.902Z,110.48
2023-05-14T08:18:42.774Z,112.09
2023-05-14T08:19:42.738Z,111.77
2023-05-14T08:20:42.742Z,109.84
2023-05-14T08:21:42.748Z,114.67
2023-05-14T08:22:42.715Z,111.77
2023-05-14T08:23:42.750Z,111.13
2023-05-14T08:24:42.706Z,111.45
2023-05-14T08:25:42.698Z,112.74
2023-05-14T08:26:42.691Z,110.48
2023-05-14T08:27:42.727Z,110.81
2023-05-14T08:28:42.667Z,110.48
2023-05-14T08:29:42.672Z,111.77
2023-05-14T08:30:42.668Z,110.16
2023-05-14T08:31:42.644Z,113.06
2023-05-14T08:32:42.642Z,111.13
2023-05-14T08:33:42.625Z,110.48
2023-05-14T08:34:44.083Z,114.03
2023-05-14T08:35:42.588Z,114.67
2023-05-14T08:36:42.583Z,109.52
2023-05-14T08:37:42.601Z,113.06
2023-05-14T08:38:42.766Z,111.45
2023-05-14T08:39:42.537Z,111.13
2023-05-14T08:40:42.544Z,115.00
2023-05-14T08:41:42.536Z,110.48
2023-05-14T08:42:42.518Z,110.81
2023-05-14T08:43:42.502Z,113.38
2023-05-14T08:44:42.672Z,112.09
2023-05-14T08:45:42.473Z,112.42
2023-05-14T08:46:42.473Z,110.48
2023-05-14T08:47:42.514Z,112.09
2023-05-14T08:48:42.485Z,110.48
2023-05-14T08:49:42.437Z,112.42
2023-05-14T08:50:42.427Z,112.74
2023-05-14T08:51:42.426Z,113.06
2023-05-14T08:52:42.415Z,110.81
2023-05-14T08:53:42.427Z,111.13
2023-05-14T08:54:42.366Z,111.77
2023-05-14T08:55:42.389Z,112.74
2023-05-14T08:56:42.344Z,111.13
2023-05-14T08:57:42.366Z,110.81
2023-05-14T08:58:42.332Z,113.38
2023-05-14T08:59:42.328Z,111.45
2023-05-14T09:00:42.303Z,112.42
2023-05-14T09:01:42.388Z,112.09
2023-05-14T09:02:42.340Z,114.35
2023-05-14T09:03:42.354Z,114.35
2023-05-14T09:04:42.296Z,111.13
2023-05-14T09:05:42.288Z,111.45
2023-05-14T09:06:42.265Z,112.74
2023-05-14T09:07:42.278Z,114.35
2023-05-14T09:08:42.255Z,114.35
2023-05-14T09:09:42.234Z,111.13
2023-05-14T09:10:42.203Z,114.67
2023-05-14T09:11:42.226Z,113.06
2023-05-14T09:12:42.208Z,114.35
2023-05-14T09:13:42.207Z,112.74
2023-05-14T09:14:42.161Z,113.06
2023-05-14T09:15:42.382Z,112.74
2023-05-14T09:16:42.222Z,111.13
2023-05-14T09:17:42.211Z,111.13
2023-05-14T09:18:42.179Z,114.03
2023-05-14T09:19:42.129Z,111.45
2023-05-14T09:20:42.109Z,113.38
2023-05-14T09:21:42.094Z,113.06
2023-05-14T09:22:42.080Z,111.77
2023-05-14T09:23:42.062Z,111.77
2023-05-14T09:24:42.071Z,113.71
2023-05-14T09:25:42.040Z,112.74
2023-05-14T09:26:42.033Z,113.38
2023-05-14T09:27:42.032Z,113.38
2023-05-14T09:28:42.000Z,112.42
2023-05-14T09:29:42.047Z,113.06
2023-05-14T09:30:42.033Z,113.71
2023-05-14T09:31:42.040Z,113.38
2023-05-14T09:32:41.994Z,112.74
2023-05-14T09:33:42.176Z,112.42
2023-05-14T09:34:41.954Z,112.74
2023-05-14T09:35:41.979Z,111.77
2023-05-14T09:36:41.947Z,113.06
2023-05-14T09:37:41.944Z,114.67
2023-05-14T09:38:41.899Z,113.38
2023-05-14T09:39:41.889Z,112.09
2023-05-14T09:40:41.890Z,111.77
2023-05-14T09:41:41.906Z,114.03
2023-05-14T09:42:41.871Z,114.67
2023-05-14T09:43:41.849Z,112.09
2023-05-14T09:44:41.840Z,113.06
2023-05-14T09:45:41.841Z,111.45
2023-05-14T09:46:42.049Z,113.06
2023-05-14T09:47:41.856Z,111.77
2023-05-14T09:48:41.876Z,112.42
2023-05-14T09:49:41.795Z,113.06
2023-05-14T09:50:41.802Z,111.45
2023-05-14T09:51:41.800Z,112.74
2023-05-14T09:52:41.774Z,113.06
2023-05-14T09:53:41.751Z,114.03
2023-05-14T09:54:41.793Z,113.38
2023-05-14T09:55:41.755Z,112.09
2023-05-14T09:56:41.716Z,109.19
2023-05-14T09:57:41.717Z,111.13
2023-05-14T09:58:41.737Z,113.06
2023-05-14T09:59:41.713Z,112.74
2023-05-14T10:00:41.703Z,113.71
2023-05-14T10:01:41.743Z,114.35
2023-05-14T10:02:41.755Z,112.74
2023-05-14T10:03:41.661Z,112.42
2023-05-14T10:04:41.662Z,112.09
2023-05-14T10:05:41.625Z,113.06
2023-05-14T10:06:41.628Z,113.06
2023-05-14T10:07:41.640Z,112.74
2023-05-14T10:08:41.627Z,113.71
2023-05-14T10:09:41.610Z,112.42
2023-05-14T10:10:41.596Z,108.55
2023-05-14T10:11:41.577Z,113.06
2023-05-14T10:12:41.565Z,111.45
2023-05-14T10:13:41.553Z,113.38
2023-05-14T10:14:41.564Z,112.74
2023-05-14T10:15:41.521Z,112.09
2023-05-14T10:16:41.540Z,113.71
2023-05-14T10:17:41.576Z,113.06
2023-05-14T10:18:41.722Z,112.74
2023-05-14T10:19:41.481Z,113.71
2023-05-14T10:20:41.537Z,113.06
2023-05-14T10:21:41.451Z,114.35
2023-05-14T10:22:41.471Z,111.77
2023-05-14T10:23:41.455Z,114.35
2023-05-14T10:24:41.437Z,113.38
2023-05-14T10:25:41.447Z,113.71
2023-05-14T10:26:41.421Z,113.06
2023-05-14T10:27:41.420Z,111.77
2023-05-14T10:28:41.386Z,114.35
2023-05-14T10:29:41.372Z,113.06
2023-05-14T10:30:41.360Z,112.74
2023-05-14T10:31:41.397Z,112.42
2023-05-14T10:32:41.468Z,111.77
2023-05-14T10:33:41.326Z,114.67
2023-05-14T10:34:41.386Z,111.77
2023-05-14T10:35:41.346Z,112.42
2023-05-14T10:36:41.326Z,112.74
2023-05-14T10:37:41.279Z,112.42
2023-05-14T10:38:41.305Z,111.13
2023-05-14T10:39:41.521Z,111.77
2023-05-14T10:40:41.278Z,111.77
2023-05-14T10:41:41.255Z,111.77
2023-05-14T10:42:41.271Z,114.35
2023-05-14T10:43:41.213Z,112.74
2023-05-14T10:44:41.213Z,112.74
2023-05-14T10:45:41.194Z,113.38
2023-05-14T10:46:41.259Z,113.38
2023-05-14T10:47:41.201Z,112.09
2023-05-14T10:48:41.213Z,112.74
2023-05-14T10:49:43.922Z,112.09
2023-05-14T10:50:41.168Z,114.35
2023-05-14T10:51:41.249Z,112.74
2023-05-14T10:52:41.131Z,113.06
2023-05-14T10:53:41.135Z,112.74
2023-05-14T10:54:41.113Z,110.81
2023-05-14T10:55:41.114Z,112.42
2023-05-14T10:56:41.098Z,113.06
2023-05-14T10:57:41.094Z,112.09
2023-05-14T10:58:41.069Z,111.45
2023-05-14T10:59:41.053Z,112.74
2023-05-14T11:00:41.067Z,113.71
2023-05-14T11:01:41.082Z,114.03
2023-05-14T11:02:41.057Z,113.38
2023-05-14T11:03:41.096Z,112.42
2023-05-14T11:04:41.021Z,112.09
2023-05-14T11:05:40.984Z,114.03
2023-05-14T11:06:41.001Z,112.09
2023-05-14T11:07:40.973Z,113.06
2023-05-14T11:08:41.013Z,112.74
2023-05-14T11:09:40.973Z,114.67
2023-05-14T11:10:40.972Z,113.06
2023-05-14T11:11:40.979Z,113.38
2023-05-14T11:12:40.922Z,112.74
2023-05-14T11:13:40.921Z,113.06
2023-05-14T11:14:40.931Z,113.71
2023-05-14T11:15:40.884Z,112.09
2023-05-14T11:16:40.938Z,111.77
2023-05-14T11:17:40.975Z,113.38
2023-05-14T11:18:41.111Z,112.74
2023-05-14T11:19:40.866Z,112.74
2023-05-14T11:20:40.873Z,111.45
2023-05-14T11:21:40.869Z,112.42
2023-05-14T11:22:40.851Z,113.06
2023-05-14T11:23:40.863Z,112.42
2023-05-14T11:24:40.808Z,114.35
2023-05-14T11:25:40.813Z,111.77
2023-05-14T11:26:40.851Z,112.09
2023-05-14T11:27:40.793Z,113.71
2023-05-14T11:28:40.764Z,109.19
2023-05-14T11:29:40.737Z,112.09
2023-05-14T11:30:40.740Z,111.77
2023-05-14T11:31:40.750Z,113.06
2023-05-14T11:32:40.778Z,113.71
2023-05-14T11:33:40.735Z,114.03
2023-05-14T11:34:40.696Z,112.74
2023-05-14T11:35:40.712Z,113.71
2023-05-14T11:36:40.729Z,113.71
2023-05-14T11:37:40.675Z,112.74
2023-05-14T11:38:40.660Z,113.38
2023-05-14T11:39:40.653Z,112.74
2023-05-14T11:40:40.652Z,113.38
2023-05-14T11:41:40.831Z,112.09
2023-05-14T11:42:40.615Z,113.06
2023-05-14T11:43:40.615Z,112.42
2023-05-14T11:44:40.613Z,113.06
2023-05-14T11:45:40.642Z,113.06
2023-05-14T11:46:40.683Z,112.09
2023-05-14T11:47:40.599Z,112.42
2023-05-14T11:48:40.571Z,113.06
2023-05-14T11:49:40.564Z,113.38
2023-05-14T11:50:40.563Z,112.42
2023-05-14T11:51:40.544Z,113.06
2023-05-14T11:52:40.540Z,114.03
2023-05-14T11:53:40.525Z,114.67
2023-05-14T11:54:40.720Z,113.38
2023-05-14T11:55:40.500Z,113.71
2023-05-14T11:56:40.498Z,113.38
2023-05-14T11:57:40.492Z,114.03
2023-05-14T11:58:40.461Z,114.67
2023-05-14T11:59:40.709Z,112.09
2023-05-14T12:00:40.464Z,113.06
2023-05-14T12:01:40.413Z,113.71
2023-05-14T12:02:40.545Z,112.74
2023-05-14T12:03:40.571Z,112.42
2023-05-14T12:04:40.469Z,113.38
2023-05-14T12:05:40.417Z,112.74
2023-05-14T12:06:40.410Z,112.42
2023-05-14T12:07:40.348Z,112.42
2023-05-14T12:08:40.364Z,113.06
2023-05-14T12:09:40.655Z,112.42
2023-05-14T12:10:40.357Z,114.03
2023-05-14T12:11:40.335Z,113.06
2023-05-14T12:12:40.289Z,113.06
2023-05-14T12:13:40.288Z,112.42
2023-05-14T12:14:40.300Z,112.74
2023-05-14T12:15:40.323Z,113.06
2023-05-14T12:16:40.292Z,113.06
2023-05-14T12:17:40.312Z,114.03
2023-05-14T12:18:40.337Z,114.03
2023-05-14T12:19:40.218Z,113.06
2023-05-14T12:20:40.256Z,114.35
2023-05-14T12:21:40.237Z,113.38
2023-05-14T12:22:40.209Z,113.38
2023-05-14T12:23:40.178Z,113.38
2023-05-14T12:24:40.231Z,114.35
2023-05-14T12:25:40.164Z,113.06
2023-05-14T12:26:40.164Z,113.71
2023-05-14T12:27:40.172Z,114.03
2023-05-14T12:28:40.143Z,113.06
2023-05-14T12:29:40.132Z,114.03
2023-05-14T12:30:40.137Z,114.03
2023-05-14T12:31:40.186Z,114.03
2023-05-14T12:32:40.226Z,113.71
2023-05-14T12:33:40.077Z,114.03
2023-05-14T12:34:40.098Z,114.35
2023-05-14T12:35:40.065Z,113.71
2023-05-14T12:36:40.095Z,114.35
2023-05-14T12:37:40.165Z,114.35
2023-05-14T12:38:40.078Z,115.32
2023-05-14T12:39:40.034Z,114.67
2023-05-14T12:40:40.028Z,115.00
2023-05-14T12:41:40.024Z,114.35
2023-05-14T12:42:40.039Z,114.67
2023-05-14T12:43:40.011Z,113.38
2023-05-14T12:44:40.011Z,115.64
2023-05-14T12:45:40.000Z,114.35
2023-05-14T12:46:40.041Z,115.00
2023-05-14T12:47:40.031Z,114.35
2023-05-14T12:48:39.989Z,114.67
2023-05-14T12:49:39.934Z,114.67
2023-05-14T12:50:39.935Z,114.67
2023-05-14T12:51:39.924Z,115.00
2023-05-14T12:52:40.253Z,114.03
2023-05-14T12:53:39.894Z,115.64
2023-05-14T12:54:41.635Z,114.35
2023-05-14T12:55:39.862Z,114.35
2023-05-14T12:56:39.906Z,114.03
2023-05-14T12:57:39.891Z,115.00
2023-05-14T12:58:39.852Z,114.67
2023-05-14T12:59:39.861Z,114.35
2023-05-14T13:00:40.095Z,112.42
2023-05-14T13:01:39.946Z,114.67
2023-05-14T13:02:42.852Z,115.64
2023-05-14T13:03:39.814Z,115.96
2023-05-14T13:04:39.890Z,115.64
2023-05-14T13:05:39.780Z,115.32
2023-05-14T13:06:39.790Z,115.32
2023-05-14T13:07:39.740Z,115.32
2023-05-14T13:08:41.483Z,115.00
2023-05-14T13:09:39.757Z,114.67
2023-05-14T13:10:39.756Z,114.35
2023-05-14T13:11:39.699Z,114.67
2023-05-14T13:12:39.724Z,115.00
2023-05-14T13:13:39.719Z,113.71
2023-05-14T13:14:39.707Z,114.35
2023-05-14T13:15:39.893Z,114.35
2023-05-14T13:16:39.750Z,113.71
2023-05-14T13:17:39.691Z,114.03
2023-05-14T13:18:39.691Z,113.38
2023-05-14T13:19:39.677Z,113.71
2023-05-14T13:20:41.225Z,114.35
2023-05-14T13:21:39.614Z,114.67
2023-05-14T13:22:39.666Z,113.71
2023-05-14T13:23:39.597Z,114.67
2023-05-14T13:24:39.612Z,114.35
2023-05-14T13:25:39.607Z,115.32
2023-05-14T13:26:39.614Z,113.38
2023-05-14T13:27:39.589Z,115.00
2023-05-14T13:28:39.748Z,114.35
2023-05-14T13:29:39.520Z,114.35
2023-05-14T13:30:39.561Z,113.71
2023-05-14T13:31:39.537Z,114.03
2023-05-14T13:32:42.101Z,113.06
2023-05-14T13:33:39.498Z,114.03
2023-05-14T13:34:39.482Z,113.71
2023-05-14T13:35:39.469Z,114.03
2023-05-14T13:36:39.511Z,113.06
2023-05-14T13:37:39.462Z,113.38
2023-05-14T13:38:39.480Z,114.03
2023-05-14T13:39:41.089Z,113.71
2023-05-14T13:40:39.434Z,114.03
2023-05-14T13:41:39.427Z,114.35
2023-05-14T13:42:39.430Z,114.03
2023-05-14T13:43:39.386Z,113.71
2023-05-14T13:44:39.393Z,113.38
2023-05-14T13:45:39.429Z,114.03
2023-05-14T13:46:39.416Z,113.38
2023-05-14T13:47:40.285Z,113.71
2023-05-14T13:48:39.375Z,113.38
2023-05-14T13:49:39.316Z,113.38
2023-05-14T13:50:39.357Z,114.35
2023-05-14T13:51:39.372Z,113.06
2023-05-14T13:52:39.301Z,108.87
2023-05-14T13:53:39.323Z,113.71
2023-05-14T13:54:39.344Z,112.09
2023-05-14T13:55:39.261Z,114.67
2023-05-14T13:56:39.258Z,114.03
2023-05-14T13:57:39.239Z,113.06
2023-05-14T13:58:39.246Z,114.35
2023-05-14T13:59:39.220Z,113.71
2023-05-14T14:00:39.251Z,115.32
2023-05-14T14:01:39.252Z,114.03
2023-05-14T14:02:39.261Z,112.74
2023-05-14T14:03:39.214Z,114.67
2023-05-14T14:04:39.189Z,114.67
2023-05-14T14:05:39.631Z,114.03
2023-05-14T14:06:39.172Z,113.71
2023-05-14T14:07:39.232Z,114.03
2023-05-14T14:08:39.180Z,113.71
2023-05-14T14:09:39.162Z,114.67
2023-05-14T14:10:39.139Z,114.67
2023-05-14T14:11:39.134Z,114.35
2023-05-14T14:12:39.106Z,115.00
2023-05-14T14:13:39.091Z,115.32
2023-05-14T14:14:39.080Z,117.57
2023-05-14T14:15:39.087Z,115.32
2023-05-14T14:16:39.132Z,115.32
2023-05-14T14:17:39.148Z,115.32
2023-05-14T14:18:39.093Z,116.28
2023-05-14T14:19:39.074Z,116.28
2023-05-14T14:20:39.247Z,115.96
2023-05-14T14:21:39.030Z,115.64
2023-05-14T14:22:39.041Z,116.28
2023-05-14T14:23:39.086Z,115.32
2023-05-14T14:24:38.991Z,115.96
2023-05-14T14:25:39.008Z,115.96
2023-05-14T14:26:39.008Z,115.64
2023-05-14T14:27:38.976Z,115.96
2023-05-14T14:28:38.970Z,116.28
2023-05-14T14:29:38.942Z,115.96
2023-05-14T14:30:38.952Z,115.64
2023-05-14T14:31:39.043Z,116.28
2023-05-14T14:32:38.968Z,116.28
2023-05-14T14:33:38.921Z,115.32
2023-05-14T14:34:38.877Z,115.64
2023-05-14T14:35:38.894Z,115.64
2023-05-14T14:36:38.914Z,115.64
2023-05-14T14:37:38.872Z,115.32
2023-05-14T14:38:38.851Z,115.32
2023-05-14T14:39:38.893Z,114.67
2023-05-14T14:40:38.850Z,115.32
2023-05-14T14:41:38.858Z,115.32
2023-05-14T14:42:38.823Z,114.03
2023-05-14T14:43:38.852Z,114.35
2023-05-14T14:44:38.848Z,114.35
2023-05-14T14:45:38.838Z,114.03
2023-05-14T14:46:38.804Z,115.32
2023-05-14T14:47:38.783Z,114.35
2023-05-14T14:48:38.765Z,113.71
2023-05-14T14:49:38.760Z,114.67
2023-05-14T14:50:38.761Z,115.00
2023-05-14T14:51:38.725Z,114.03
2023-05-14T14:52:38.720Z,115.32
2023-05-14T14:53:38.704Z,115.00
2023-05-14T14:54:38.779Z,115.32
2023-05-14T14:55:38.743Z,115.32
2023-05-14T14:56:38.704Z,115.00
2023-05-14T14:57:38.693Z,114.67
2023-05-14T14:58:38.676Z,114.35
2023-05-14T14:59:38.676Z,114.03
2023-05-14T15:00:38.635Z,114.35
2023-05-14T15:01:38.675Z,115.32
2023-05-14T15:02:38.693Z,115.64
2023-05-14T15:03:38.771Z,114.35
2023-05-14T15:04:38.625Z,115.32
2023-05-14T15:05:38.619Z,115.96
2023-05-14T15:06:38.594Z,114.03
2023-05-14T15:07:38.615Z,114.35
2023-05-14T15:08:38.689Z,114.67
2023-05-14T15:09:38.569Z,114.03
2023-05-14T15:10:38.611Z,114.35
2023-05-14T15:11:38.553Z,114.67
2023-05-14T15:12:38.546Z,115.00
2023-05-14T15:13:38.521Z,114.03
2023-05-14T15:14:38.500Z,115.64
2023-05-14T15:15:38.564Z,115.00
2023-05-14T15:16:38.552Z,114.35
2023-05-14T15:17:38.786Z,114.67
2023-05-14T15:18:38.474Z,114.03
2023-05-14T15:19:38.473Z,113.71
2023-05-14T15:20:38.449Z,115.00
2023-05-14T15:21:38.468Z,114.35
2023-05-14T15:22:38.456Z,114.67
2023-05-14T15:23:38.412Z,114.35
2023-05-14T15:24:38.415Z,115.00
2023-05-14T15:25:38.403Z,114.03
2023-05-14T15:26:38.395Z,115.00
2023-05-14T15:27:38.434Z,114.67
2023-05-14T15:28:38.359Z,115.64
2023-05-14T15:29:38.367Z,114.67
2023-05-14T15:30:38.349Z,114.67
2023-05-14T15:31:38.358Z,114.35
2023-05-14T15:32:38.368Z,115.00
2023-05-14T15:33:38.330Z,115.32
2023-05-14T15:34:38.291Z,115.00
2023-05-14T15:35:38.358Z,115.32
2023-05-14T15:36:38.316Z,115.96
2023-05-14T15:37:38.310Z,115.64
2023-05-14T15:38:38.258Z,114.67
2023-05-14T15:39:38.261Z,115.64
2023-05-14T15:40:38.248Z,115.32
2023-05-14T15:41:38.244Z,115.32
2023-05-14T15:42:38.232Z,115.32
2023-05-14T15:43:38.262Z,115.00
2023-05-14T15:44:39.102Z,115.00
2023-05-14T15:45:38.203Z,115.32
2023-05-14T15:46:38.219Z,114.35
2023-05-14T15:47:38.279Z,115.64
2023-05-14T15:48:38.188Z,115.00
2023-05-14T15:49:38.158Z,114.67
2023-05-14T15:50:38.164Z,115.64
2023-05-14T15:51:38.158Z,114.67
2023-05-14T15:52:38.128Z,115.32
2023-05-14T15:53:38.129Z,115.32
2023-05-14T15:54:38.113Z,115.64
2023-05-14T15:55:38.119Z,115.00
2023-05-14T15:56:38.098Z,115.00
2023-05-14T15:57:38.099Z,114.03
2023-05-14T15:58:38.087Z,114.67
2023-05-14T15:59:38.118Z,114.67
2023-05-14T16:00:38.260Z,113.71
2023-05-14T16:01:38.104Z,114.35
2023-05-14T16:02:38.068Z,114.67
2023-05-14T16:03:38.106Z,115.64
2023-05-14T16:04:38.069Z,113.71
2023-05-14T16:05:38.025Z,114.03
2023-05-14T16:06:38.013Z,113.71
2023-05-14T16:07:37.999Z,113.38
2023-05-14T16:08:38.192Z,114.35
2023-05-14T16:09:38.051Z,114.35
2023-05-14T16:10:37.950Z,114.35
2023-05-14T16:11:37.982Z,114.67
2023-05-14T16:12:38.003Z,114.03
2023-05-14T16:13:37.956Z,114.35
2023-05-14T16:14:38.602Z,114.67
2023-05-14T16:15:37.957Z,114.67
2023-05-14T16:16:38.206Z,114.67
2023-05-14T16:17:37.917Z,114.35
2023-05-14T16:18:37.925Z,114.35